createdAt,value
2018-12-12T00:01:19.315Z,10.17
2018-12-12T00:03:51.881Z,13.27
2018-12-12T00:06:20.848Z,10.50
2018-12-12T00:08:54.942Z,14.47
2018-12-12T00:11:23.950Z,12.40
2018-12-12T00:13:58.283Z,11.33
2018-12-12T00:16:27.314Z,13.47
2018-12-12T00:19:00.810Z,14.37
2018-12-12T00:21:30.326Z,12.90
2018-12-12T00:24:05.200Z,11.83
2018-12-12T00:26:34.491Z,12.10
2018-12-12T00:29:07.280Z,13.50
2018-12-12T00:31:36.337Z,13.80
2018-12-12T00:34:10.885Z,14.23
2018-12-12T00:36:39.826Z,16.83
2018-12-12T00:39:14.338Z,13.77
2018-12-12T00:41:43.635Z,11.40
2018-12-12T00:44:14.909Z,7.77
2018-12-12T00:46:44.552Z,10.20
2018-12-12T00:49:21.030Z,10.87
2018-12-12T00:51:50.342Z,14.03
2018-12-12T00:54:19.764Z,11.43
2018-12-12T00:56:48.742Z,12.87
2018-12-12T00:59:23.666Z,19.23
2018-12-12T01:01:52.710Z,12.03
2018-12-12T01:04:25.166Z,12.77
2018-12-12T01:06:54.844Z,10.83
2018-12-12T01:09:27.536Z,13.00
2018-12-12T01:12:01.619Z,17.93
2018-12-12T01:14:32.037Z,12.00
2018-12-12T01:17:00.961Z,13.07
2018-12-12T01:19:33.047Z,13.63
2018-12-12T01:22:02.403Z,14.67
2018-12-12T01:24:35.178Z,11.67
2018-12-12T01:27:04.078Z,15.60
2018-12-12T01:29:37.500Z,12.90
2018-12-12T01:32:07.165Z,9.53
2018-12-12T01:34:40.654Z,18.07
2018-12-12T01:37:10.133Z,14.23
2018-12-12T01:39:43.792Z,15.57
2018-12-12T01:42:13.180Z,13.87
2018-12-12T01:44:49.464Z,15.73
2018-12-12T01:47:18.402Z,13.97
2018-12-12T01:49:48.846Z,15.03
2018-12-12T01:52:17.760Z,16.47
2018-12-12T01:54:54.060Z,11.67
2018-12-12T01:57:23.112Z,12.63
2018-12-12T01:59:55.539Z,16.07
2018-12-12T02:02:25.082Z,18.87
2018-12-12T02:04:57.446Z,13.67
2018-12-12T02:07:27.231Z,12.83
2018-12-12T02:10:00.622Z,18.17
2018-12-12T02:12:30.119Z,15.00
2018-12-12T02:15:03.660Z,17.77
2018-12-12T02:17:32.954Z,14.60
2018-12-12T02:20:06.142Z,21.53
2018-12-12T02:22:35.126Z,21.47
2018-12-12T02:25:10.509Z,13.67
2018-12-12T02:27:39.815Z,15.93
2018-12-12T02:30:12.304Z,18.70
2018-12-12T02:32:41.195Z,15.30
2018-12-12T02:35:14.136Z,12.33
2018-12-12T02:37:43.039Z,16.87
2018-12-12T02:40:18.612Z,14.17
2018-12-12T02:42:47.847Z,16.83
2018-12-12T02:45:20.463Z,19.67
2018-12-12T02:47:49.770Z,15.77
2018-12-12T02:50:22.856Z,16.67
2018-12-12T02:52:53.007Z,16.27
2018-12-12T02:55:26.098Z,16.93
2018-12-12T02:57:55.500Z,17.53
2018-12-12T03:00:32.042Z,16.10
2018-12-12T03:03:01.364Z,14.87
2018-12-12T03:05:31.226Z,18.50
2018-12-12T03:08:01.235Z,16.23
2018-12-12T03:10:32.539Z,14.10
2018-12-12T03:13:02.145Z,14.37
2018-12-12T03:15:39.162Z,20.33
2018-12-12T03:18:08.637Z,14.87
2018-12-12T03:20:37.911Z,15.33
2018-12-12T03:23:07.635Z,15.57
2018-12-12T03:25:39.803Z,16.53
2018-12-12T03:28:08.930Z,15.03
2018-12-12T03:30:42.303Z,14.63
2018-12-12T03:33:11.696Z,19.10
2018-12-12T03:35:45.291Z,16.33
2018-12-12T03:38:14.792Z,17.77
2018-12-12T03:40:48.571Z,17.03
2018-12-12T03:43:17.822Z,17.73
2018-12-12T03:45:54.332Z,14.53
2018-12-12T03:48:23.806Z,16.43
2018-12-12T03:50:53.891Z,16.30
2018-12-12T03:53:23.424Z,16.67
2018-12-12T03:55:57.306Z,14.13
2018-12-12T03:58:27.217Z,17.80
2018-12-12T04:01:00.167Z,18.33
2018-12-12T04:03:29.807Z,17.60
2018-12-12T04:06:03.042Z,18.10
2018-12-12T04:08:31.928Z,17.57
2018-12-12T04:11:05.474Z,17.27
2018-12-12T04:13:35.011Z,21.00
2018-12-12T04:16:08.283Z,18.83
2018-12-12T04:18:37.753Z,16.37
2018-12-12T04:21:13.264Z,16.17
2018-12-12T04:23:42.182Z,16.17
2018-12-12T04:26:14.641Z,18.50
2018-12-12T04:28:44.074Z,19.73
2018-12-12T04:31:16.983Z,17.10
2018-12-12T04:33:45.889Z,17.43
2018-12-12T04:36:18.271Z,17.60
2018-12-12T04:38:47.446Z,18.17
2018-12-12T04:41:22.273Z,16.37
2018-12-12T04:43:51.200Z,12.67
2018-12-12T04:46:23.331Z,16.37
2018-12-12T04:48:52.214Z,18.17
2018-12-12T04:51:25.648Z,17.47
2018-12-12T04:53:54.983Z,15.80
2018-12-12T04:56:31.354Z,16.03
2018-12-12T04:59:00.435Z,18.57
2018-12-12T05:01:30.723Z,17.00
2018-12-12T05:03:59.607Z,18.13
2018-12-12T05:06:34.455Z,18.67
2018-12-12T05:09:04.596Z,15.97
2018-12-12T05:11:35.346Z,20.43
2018-12-12T05:14:05.023Z,13.13
2018-12-12T05:16:37.442Z,18.03
2018-12-12T05:19:06.360Z,16.17
2018-12-12T05:21:40.279Z,19.37
2018-12-12T05:24:09.381Z,20.10
2018-12-12T05:26:45.537Z,19.90
2018-12-12T05:29:14.793Z,19.63
2018-12-12T05:31:45.092Z,19.23
2018-12-12T05:34:14.030Z,21.27
2018-12-12T05:36:49.742Z,17.20
2018-12-12T05:39:18.702Z,19.07
2018-12-12T05:41:51.314Z,16.67
2018-12-12T05:44:20.599Z,19.20
2018-12-12T05:46:57.700Z,19.23
2018-12-12T05:49:26.934Z,20.47
2018-12-12T05:51:56.778Z,17.57
2018-12-12T05:54:25.879Z,20.63
2018-12-12T05:57:02.784Z,19.53
2018-12-12T05:59:31.760Z,17.23
2018-12-12T06:02:03.754Z,20.40
2018-12-12T06:04:33.011Z,24.30
2018-12-12T06:07:05.487Z,18.20
2018-12-12T06:09:34.458Z,16.67
2018-12-12T06:12:12.473Z,15.10
2018-12-12T06:14:41.438Z,16.53
2018-12-12T06:17:12.916Z,22.27
2018-12-12T06:19:42.371Z,20.50
2018-12-12T06:22:15.369Z,20.47
2018-12-12T06:24:44.726Z,19.33
2018-12-12T06:27:17.944Z,20.90
2018-12-12T06:29:46.886Z,17.73
2018-12-12T06:32:20.042Z,20.40
2018-12-12T06:34:49.012Z,18.27
2018-12-12T06:37:21.782Z,19.43
2018-12-12T06:39:51.095Z,18.80
2018-12-12T06:42:24.050Z,16.37
2018-12-12T06:44:53.025Z,19.13
2018-12-12T06:47:30.637Z,18.07
2018-12-12T06:49:59.630Z,18.50
2018-12-12T06:52:28.606Z,20.13
2018-12-12T06:54:57.907Z,25.87
2018-12-12T06:57:31.016Z,20.90
2018-12-12T06:59:59.960Z,20.70
2018-12-12T07:02:34.036Z,22.20
2018-12-12T07:05:03.390Z,21.70
2018-12-12T07:07:36.324Z,22.43
2018-12-12T07:10:05.690Z,22.53
2018-12-12T07:12:42.152Z,25.97
2018-12-12T07:15:11.175Z,26.93
2018-12-12T07:17:41.528Z,27.80
2018-12-12T07:20:11.959Z,28.73
2018-12-12T07:22:44.832Z,28.67
2018-12-12T07:25:13.750Z,23.30
2018-12-12T07:27:49.295Z,19.93
2018-12-12T07:30:18.372Z,19.50
2018-12-12T07:32:51.639Z,19.80
2018-12-12T07:35:20.818Z,18.80
2018-12-12T07:37:54.050Z,21.17
2018-12-12T07:40:25.583Z,19.07
2018-12-12T07:42:57.819Z,24.80
2018-12-12T07:45:26.871Z,21.07
2018-12-12T07:48:01.543Z,24.90
2018-12-12T07:50:31.034Z,30.23
2018-12-12T07:53:04.510Z,25.63
2018-12-12T07:55:33.958Z,30.77
2018-12-12T07:58:06.831Z,28.77
2018-12-12T08:00:35.846Z,27.20
2018-12-12T08:03:12.765Z,25.80
2018-12-12T08:05:42.008Z,28.10
2018-12-12T08:08:12.870Z,27.60
2018-12-12T08:10:42.134Z,27.00
2018-12-12T08:13:15.036Z,29.60
2018-12-12T08:15:44.181Z,33.30
2018-12-12T08:18:20.754Z,29.80
2018-12-12T08:20:49.800Z,35.87
2018-12-12T08:23:20.263Z,35.83
2018-12-12T08:25:49.339Z,38.33
2018-12-12T08:28:26.500Z,42.50
2018-12-12T08:30:55.559Z,42.37
2018-12-12T08:33:25.226Z,38.57
2018-12-12T08:35:54.445Z,37.40
2018-12-12T08:38:31.262Z,43.87
2018-12-12T08:41:00.559Z,39.00
2018-12-12T08:43:31.027Z,45.17
2018-12-12T08:46:00.040Z,36.37
2018-12-12T08:48:31.852Z,43.27
2018-12-12T08:51:01.960Z,48.47
2018-12-12T08:53:34.993Z,40.27
2018-12-12T08:56:04.365Z,38.50
2018-12-12T08:58:40.876Z,48.13
2018-12-12T09:01:09.842Z,47.47
2018-12-12T09:03:39.252Z,43.43
2018-12-12T09:06:08.237Z,45.10
2018-12-12T09:08:40.846Z,49.33
2018-12-12T09:11:10.301Z,47.17
2018-12-12T09:13:44.198Z,49.33
2018-12-12T09:16:13.757Z,46.10
2018-12-12T09:18:47.269Z,56.97
2018-12-12T09:21:16.314Z,52.87
2018-12-12T09:23:49.789Z,48.23
2018-12-12T09:26:18.837Z,52.13
2018-12-12T09:28:52.356Z,51.90
2018-12-12T09:31:22.896Z,53.30
2018-12-12T09:33:59.573Z,62.77
2018-12-12T09:36:28.627Z,54.13
2018-12-12T09:38:58.913Z,62.27
2018-12-12T09:41:28.052Z,54.77
2018-12-12T09:44:03.355Z,54.00
2018-12-12T09:46:32.817Z,53.33
2018-12-12T09:49:05.862Z,45.33
2018-12-12T09:51:34.838Z,42.83
2018-12-12T09:54:11.983Z,40.73
2018-12-12T09:56:41.087Z,38.63
2018-12-12T09:59:11.699Z,36.97
2018-12-12T10:01:42.085Z,43.27
2018-12-12T10:04:14.813Z,37.23
2018-12-12T10:06:43.818Z,40.93
2018-12-12T10:09:17.187Z,41.40
2018-12-12T10:11:46.185Z,42.10
2018-12-12T10:14:22.375Z,45.33
2018-12-12T10:16:51.648Z,44.33
2018-12-12T10:19:24.575Z,45.83
2018-12-12T10:21:54.317Z,44.80
2018-12-12T10:24:24.787Z,44.33
2018-12-12T10:26:54.154Z,43.37
2018-12-12T10:29:30.647Z,51.57
2018-12-12T10:31:59.608Z,50.83
2018-12-12T10:34:29.046Z,56.50
2018-12-12T10:36:58.059Z,46.80
2018-12-12T10:39:32.423Z,51.33
2018-12-12T10:42:01.887Z,46.30
2018-12-12T10:44:34.948Z,48.43
2018-12-12T10:47:04.585Z,46.67
2018-12-12T10:49:36.894Z,50.40
2018-12-12T10:52:05.979Z,51.60
2018-12-12T10:54:43.543Z,42.70
2018-12-12T10:57:12.621Z,44.93
2018-12-12T10:59:42.576Z,45.10
2018-12-12T11:02:17.583Z,46.83
2018-12-12T11:04:46.767Z,46.30
2018-12-12T11:07:15.892Z,41.50
2018-12-12T11:09:47.172Z,41.50
2018-12-12T11:12:16.177Z,50.03
2018-12-12T11:14:49.502Z,44.13
2018-12-12T11:17:18.516Z,42.23
2018-12-12T11:19:52.542Z,46.37
2018-12-12T11:22:21.642Z,45.00
2018-12-12T11:24:57.002Z,49.87
2018-12-12T11:27:26.869Z,44.90
2018-12-12T11:29:59.189Z,47.47
2018-12-12T11:32:28.248Z,46.67
2018-12-12T11:35:01.891Z,48.40
2018-12-12T11:37:47.314Z,45.93
2018-12-12T11:40:17.021Z,48.07
2018-12-12T11:42:46.358Z,45.93
2018-12-12T11:45:15.775Z,49.37
2018-12-12T11:47:45.564Z,46.03
2018-12-12T11:50:14.691Z,47.67
2018-12-12T11:52:43.832Z,43.53
2018-12-12T11:55:13.967Z,51.30
2018-12-12T11:57:43.199Z,48.20
2018-12-12T12:00:20.123Z,41.43
2018-12-12T12:02:49.630Z,42.00
2018-12-12T12:05:18.862Z,49.50
2018-12-12T12:07:48.303Z,48.17
2018-12-12T12:10:25.107Z,44.27
2018-12-12T12:12:54.303Z,43.80
2018-12-12T12:15:23.499Z,42.67
2018-12-12T12:17:52.878Z,47.07
2018-12-12T12:20:29.693Z,40.83
2018-12-12T12:22:59.003Z,43.03
2018-12-12T12:25:29.149Z,42.20
2018-12-12T12:27:59.207Z,40.23
2018-12-12T12:30:35.719Z,43.47
2018-12-12T12:33:05.155Z,41.77
2018-12-12T12:35:34.206Z,44.00
2018-12-12T12:38:03.366Z,46.37
2018-12-12T12:40:36.145Z,45.70
2018-12-12T12:43:05.772Z,42.23
2018-12-12T12:45:38.663Z,55.53
2018-12-12T12:48:07.746Z,46.67
2018-12-12T12:50:45.215Z,44.47
2018-12-12T12:53:14.854Z,42.90
2018-12-12T12:55:44.012Z,39.20
2018-12-12T12:58:13.461Z,40.23
2018-12-12T13:00:50.674Z,38.10
2018-12-12T13:03:20.010Z,42.47
2018-12-12T13:07:18.455Z,38.07
2018-12-12T13:09:51.313Z,34.07
2018-12-12T13:12:20.406Z,35.10
2018-12-12T13:14:57.938Z,36.27
2018-12-12T13:17:28.616Z,38.80
2018-12-12T13:21:27.059Z,29.63
2018-12-12T13:24:01.668Z,32.57
2018-12-12T13:33:34.082Z,27.80
2018-12-12T13:36:07.431Z,23.90
2018-12-12T13:38:37.317Z,21.13
2018-12-12T13:41:14.452Z,24.10
2018-12-12T13:43:43.506Z,22.93
2018-12-12T13:46:12.576Z,18.10
2018-12-12T13:48:41.616Z,18.67
2018-12-12T13:51:18.467Z,18.50
2018-12-12T13:53:47.471Z,23.80
2018-12-12T13:56:17.680Z,16.63
2018-12-12T13:58:46.969Z,16.10
2018-12-12T14:01:23.014Z,17.00
2018-12-12T14:03:52.254Z,13.23
2018-12-12T14:06:24.443Z,14.93
2018-12-12T14:08:53.707Z,12.07
2018-12-12T14:11:25.782Z,14.07
2018-12-12T14:13:54.818Z,14.70
2018-12-12T14:16:31.774Z,14.47
2018-12-12T14:19:00.958Z,16.27
2018-12-12T14:21:38.760Z,13.40
2018-12-12T14:24:08.079Z,16.40
2018-12-12T14:26:37.213Z,12.10
2018-12-12T14:29:07.128Z,9.73
2018-12-12T14:31:39.253Z,11.37
2018-12-12T14:34:08.249Z,13.43
2018-12-12T14:36:41.893Z,13.07
2018-12-12T14:39:10.882Z,11.33
2018-12-12T14:41:44.480Z,18.53
2018-12-12T14:44:13.779Z,11.57
2018-12-12T14:46:49.574Z,11.40
2018-12-12T14:49:18.827Z,13.60
2018-12-12T14:51:55.357Z,11.63
2018-12-12T14:54:24.360Z,17.50
2018-12-12T14:56:54.745Z,16.07
2018-12-12T14:59:23.910Z,12.07
2018-12-12T15:02:01.190Z,12.30
2018-12-12T15:04:35.723Z,10.00
2018-12-12T15:07:01.429Z,15.47
2018-12-12T15:09:30.728Z,8.10
2018-12-12T15:12:03.495Z,12.13
2018-12-12T15:14:32.532Z,9.83
2018-12-12T15:17:08.791Z,9.77
2018-12-12T15:19:38.210Z,14.73
2018-12-12T15:22:11.204Z,16.17
2018-12-12T15:24:40.235Z,16.57
2018-12-12T15:27:16.283Z,15.97
2018-12-12T15:29:45.340Z,12.97
2018-12-12T15:32:15.325Z,13.00
2018-12-12T15:34:44.687Z,13.43
2018-12-12T15:37:20.975Z,9.07
2018-12-12T15:39:50.053Z,11.40
2018-12-12T15:42:20.103Z,14.23
2018-12-12T15:44:49.137Z,11.50
2018-12-12T15:47:22.213Z,8.97
2018-12-12T15:49:51.195Z,13.23
2018-12-12T15:52:27.627Z,13.80
2018-12-12T15:54:56.720Z,12.57
2018-12-12T15:57:29.383Z,13.43
2018-12-12T15:59:58.484Z,8.63
2018-12-12T16:02:32.490Z,14.27
2018-12-12T16:05:01.576Z,15.47
2018-12-12T16:07:33.913Z,11.40
2018-12-12T16:10:05.015Z,13.60
2018-12-12T16:12:37.207Z,14.50
2018-12-12T16:15:06.473Z,9.90
2018-12-12T16:17:43.325Z,10.73
2018-12-12T16:20:12.488Z,13.77
2018-12-12T16:22:41.800Z,13.20
2018-12-12T16:25:10.971Z,11.00
2018-12-12T16:27:44.904Z,12.23
2018-12-12T16:30:15.336Z,13.90
2018-12-12T16:32:48.459Z,15.27
2018-12-12T16:35:17.611Z,15.90
2018-12-12T16:37:54.629Z,12.90
2018-12-12T16:40:23.812Z,13.47
2018-12-12T16:42:54.590Z,16.53
2018-12-12T16:45:23.803Z,18.33
2018-12-12T16:48:00.946Z,14.43
2018-12-12T16:50:30.362Z,23.20
2018-12-12T16:53:00.573Z,16.67
2018-12-12T16:55:29.666Z,16.43
2018-12-12T16:58:03.885Z,16.67
2018-12-12T17:00:33.134Z,18.23
2018-12-12T17:03:09.801Z,16.67
2018-12-12T17:05:39.160Z,14.03
2018-12-12T17:08:12.255Z,12.57
2018-12-12T17:10:41.959Z,16.33
2018-12-12T17:13:18.863Z,17.60
2018-12-12T17:15:48.100Z,11.20
2018-12-12T17:18:17.218Z,11.93
2018-12-12T17:20:46.756Z,10.67
2018-12-12T17:23:19.539Z,15.10
2018-12-12T17:25:48.805Z,14.30
2018-12-12T17:28:21.734Z,13.07
2018-12-12T17:30:50.749Z,15.30
2018-12-12T17:33:24.630Z,14.50
2018-12-12T17:35:53.955Z,12.63
2018-12-12T17:38:26.401Z,21.90
2018-12-12T17:40:55.494Z,11.80
2018-12-12T17:43:33.795Z,11.63
2018-12-12T17:46:03.292Z,14.20
2018-12-12T17:48:32.461Z,15.27
2018-12-12T17:51:01.942Z,16.93
2018-12-12T17:53:34.398Z,14.53
2018-12-12T17:56:03.444Z,12.60
2018-12-12T17:58:40.056Z,15.23
2018-12-12T18:01:09.627Z,13.17
2018-12-12T18:03:41.574Z,11.40
2018-12-12T18:06:10.649Z,13.33
2018-12-12T18:08:42.869Z,14.43
2018-12-12T18:11:12.130Z,14.87
2018-12-12T18:13:48.984Z,14.13
2018-12-12T18:16:18.401Z,13.33
2018-12-12T18:18:48.109Z,15.03
2018-12-12T18:21:17.205Z,13.17
2018-12-12T18:23:52.418Z,13.80
2018-12-12T18:26:23.312Z,14.97
2018-12-12T18:28:56.204Z,14.67
2018-12-12T18:31:25.848Z,16.83
2018-12-12T18:33:58.393Z,16.70
2018-12-12T18:36:27.653Z,14.20
2018-12-12T18:39:07.250Z,18.90
2018-12-12T18:41:36.596Z,13.90
2018-12-12T18:44:06.317Z,13.33
2018-12-12T18:46:35.388Z,13.53
2018-12-12T18:49:08.956Z,9.53
2018-12-12T18:51:38.258Z,11.83
2018-12-12T18:54:11.371Z,10.27
2018-12-12T18:56:40.645Z,10.73
2018-12-12T18:59:19.179Z,12.40
2018-12-12T19:01:48.538Z,10.23
2018-12-12T19:04:17.641Z,11.00
2018-12-12T19:06:46.694Z,12.10
2018-12-12T19:09:21.023Z,10.70
2018-12-12T19:11:51.082Z,12.70
2018-12-12T19:14:24.076Z,11.47
2018-12-12T19:16:53.419Z,13.67
2018-12-12T19:19:26.361Z,15.30
2018-12-12T19:21:55.807Z,9.80
2018-12-12T19:24:28.523Z,12.10
2018-12-12T19:26:57.790Z,14.27
2018-12-12T19:29:32.169Z,16.67
2018-12-12T19:32:01.392Z,12.07
2018-12-12T19:34:35.315Z,11.83
2018-12-12T19:37:04.890Z,11.40
2018-12-12T19:39:41.324Z,11.27
2018-12-12T19:42:10.736Z,11.30
2018-12-12T19:44:41.235Z,15.70
2018-12-12T19:47:10.563Z,10.00
2018-12-12T19:49:43.694Z,15.33
2018-12-12T19:52:13.369Z,13.47
2018-12-12T19:54:46.215Z,9.20
2018-12-12T19:57:15.571Z,13.97
2018-12-12T19:59:48.821Z,13.40
2018-12-12T20:02:19.028Z,9.73
2018-12-12T20:04:52.469Z,11.20
2018-12-12T20:07:21.754Z,9.67
2018-12-12T20:09:54.282Z,11.73
2018-12-12T20:12:23.771Z,11.80
2018-12-12T20:14:56.526Z,9.53
2018-12-12T20:17:25.810Z,12.10
2018-12-12T20:19:59.835Z,9.33
2018-12-12T20:22:29.481Z,11.37
2018-12-12T20:25:06.357Z,10.47
2018-12-12T20:27:35.901Z,10.70
2018-12-12T20:30:06.848Z,6.97
2018-12-12T20:32:36.188Z,7.93
2018-12-12T20:35:08.778Z,9.10
2018-12-12T20:37:38.198Z,7.27
2018-12-12T20:40:15.485Z,7.10
2018-12-12T20:42:44.943Z,8.80
2018-12-12T20:45:17.547Z,6.63
2018-12-12T20:47:46.840Z,6.20
2018-12-12T20:50:18.282Z,11.80
2018-12-12T20:52:47.708Z,7.33
2018-12-12T20:55:21.339Z,8.53
2018-12-12T20:57:51.765Z,9.80
2018-12-12T21:00:24.555Z,7.30
2018-12-12T21:02:53.943Z,8.00
2018-12-12T21:05:28.111Z,8.63
2018-12-12T21:07:57.659Z,7.23
2018-12-12T21:10:28.235Z,8.20
2018-12-12T21:12:57.546Z,6.30
2018-12-12T21:15:30.647Z,7.37
2018-12-12T21:18:00.026Z,9.10
2018-12-12T21:20:32.845Z,7.97
2018-12-12T21:23:02.696Z,12.70
2018-12-12T21:25:36.328Z,6.27
2018-12-12T21:28:05.518Z,7.57
2018-12-12T21:30:38.610Z,10.97
2018-12-12T21:33:08.052Z,8.93
2018-12-12T21:35:41.502Z,7.53
2018-12-12T21:38:11.089Z,6.53
2018-12-12T21:40:48.115Z,7.67
2018-12-12T21:43:18.245Z,7.20
2018-12-12T21:45:47.582Z,7.07
2018-12-12T21:48:16.942Z,9.33
2018-12-12T21:50:53.577Z,8.73
2018-12-12T21:53:22.783Z,6.10
2018-12-12T21:55:53.573Z,8.43
2018-12-12T21:58:22.742Z,5.73
2018-12-12T22:00:55.606Z,7.37
2018-12-12T22:03:24.746Z,6.80
2018-12-12T22:06:07.364Z,7.97
2018-12-12T22:08:32.794Z,7.10
2018-12-12T22:11:03.011Z,7.13
2018-12-12T22:13:33.135Z,9.40
2018-12-12T22:16:07.068Z,7.60
2018-12-12T22:18:36.392Z,7.67
2018-12-12T22:21:08.468Z,7.97
2018-12-12T22:23:37.734Z,8.00
2018-12-12T22:26:17.095Z,6.57
2018-12-12T22:28:46.945Z,8.47
2018-12-12T22:31:16.200Z,6.57
2018-12-12T22:33:45.644Z,9.43
2018-12-12T22:36:18.248Z,6.50
2018-12-12T22:38:47.345Z,5.10
2018-12-12T22:41:19.233Z,5.07
2018-12-12T22:43:48.340Z,8.03
2018-12-12T22:46:24.721Z,6.23
2018-12-12T22:48:53.970Z,4.73
2018-12-12T22:51:24.415Z,4.60
2018-12-12T22:53:53.820Z,5.63
2018-12-12T22:56:26.251Z,4.47
2018-12-12T22:58:55.331Z,5.83
2018-12-12T23:01:32.980Z,5.63
2018-12-12T23:04:02.179Z,6.27
2018-12-12T23:06:31.861Z,5.40
2018-12-12T23:09:01.338Z,5.90
2018-12-12T23:11:38.965Z,4.77
2018-12-12T23:14:08.112Z,4.40
2018-12-12T23:16:38.365Z,6.60
2018-12-12T23:19:07.453Z,4.90
2018-12-12T23:21:43.703Z,5.30
2018-12-12T23:24:12.691Z,5.63
2018-12-12T23:26:43.016Z,5.17
2018-12-12T23:29:12.290Z,5.80
2018-12-12T23:31:46.874Z,5.77
2018-12-12T23:34:15.919Z,6.33
2018-12-12T23:36:49.018Z,6.07
2018-12-12T23:39:18.075Z,7.47
2018-12-12T23:41:50.938Z,4.73
2018-12-12T23:44:20.285Z,4.47
2018-12-12T23:46:56.698Z,5.63
2018-12-12T23:49:25.790Z,5.97
2018-12-12T23:51:57.893Z,8.23
2018-12-12T23:54:26.892Z,4.70
2018-12-12T23:57:03.537Z,4.87
2018-12-12T23:59:32.851Z,4.93
